Time;durP1;ratioP1;P1;durP2;ratioP2;P2;SDS_P1;SDS_P2;PMS_P1;PMS_P2;Temp;Humidity;BMP_temperature;BMP_pressure;BME280_temperature;BME280_humidity;BME280_pressure;Samples;Min_cycle;Max_cycle;Signal;HPM_P1;HPM_P2
2020/12/10 00:00:17;;;;;;;5.68;0.93;;;26.90;83.90;;;;;;5091902;28;20101;-77
2020/12/10 00:02:45;;;;;;;7.60;1.65;;;27.20;81.30;;;;;;5088579;28;20040;-77
2020/12/10 00:05:13;;;;;;;7.95;1.70;;;27.60;84.70;;;;;;5091220;22;20060;-78
2020/12/10 00:07:41;;;;;;;8.35;1.55;;;27.80;87.40;;;;;;5070213;28;20017;-78
2020/12/10 00:10:09;;;;;;;7.88;1.48;;;28.00;86.70;;;;;;5089692;28;20130;-78
2020/12/10 00:12:44;;;;;;;6.55;1.33;;;28.00;83.90;;;;;;5090686;28;20107;-78
2020/12/10 00:15:13;;;;;;;9.45;1.60;;;28.10;83.70;;;;;;5072803;28;20020;-78
2020/12/10 00:17:40;;;;;;;8.85;2.13;;;28.10;85.20;;;;;;5086751;28;20488;-78
2020/12/10 00:20:10;;;;;;;6.57;1.38;;;27.80;82.60;;;;;;5090353;28;20050;-78
2020/12/10 00:22:37;;;;;;;11.77;1.83;;;28.10;81.90;;;;;;5072564;28;20020;-78
2020/12/10 00:25:06;;;;;;;9.70;1.83;;;28.30;86.70;;;;;;5090207;28;20035;-78
2020/12/10 00:27:35;;;;;;;7.72;1.48;;;28.30;84.10;;;;;;5091739;28;20024;-78
2020/12/10 00:30:08;;;;;;;11.52;2.40;;;28.60;84.00;;;;;;5086812;28;20028;-78
2020/12/10 00:32:36;;;;;;;10.40;1.77;;;28.60;84.10;;;;;;5091275;28;20062;-78
2020/12/10 00:35:06;;;;;;;13.23;2.15;;;28.70;82.70;;;;;;5089431;28;20088;-78
2020/12/10 00:37:35;;;;;;;11.82;1.67;;;28.70;81.80;;;;;;5091657;28;20067;-79
2020/12/10 00:40:03;;;;;;;13.00;1.52;;;27.90;79.70;;;;;;5088860;28;20083;-78
2020/12/10 00:42:31;;;;;;;16.45;1.77;;;27.20;79.50;;;;;;5085842;28;20033;-79
2020/12/10 00:44:58;;;;;;;13.88;1.67;;;26.90;79.40;;;;;;5073529;28;20036;-78
2020/12/10 00:47:25;;;;;;;8.02;1.50;;;26.00;82.50;;;;;;5053180;28;20056;-78
2020/12/10 00:49:52;;;;;;;8.55;1.17;;;26.00;85.90;;;;;;5068719;28;20036;-78
2020/12/10 00:52:25;;;;;;;8.35;1.75;;;25.80;90.40;;;;;;5071374;28;20024;-78
2020/12/10 00:54:52;;;;;;;8.90;1.85;;;25.30;90.80;;;;;;5068738;28;20484;-78
2020/12/10 00:57:20;;;;;;;10.50;1.38;;;25.10;92.30;;;;;;5088109;28;20020;-78
2020/12/10 00:59:47;;;;;;;9.25;1.58;;;25.00;91.30;;;;;;5087775;28;20358;-79
2020/12/10 01:02:14;;;;;;;6.15;1.52;;;25.20;90.60;;;;;;5091939;28;20031;-77
2020/12/10 01:04:42;;;;;;;10.18;1.90;;;25.10;90.10;;;;;;5074789;28;20029;-79
2020/12/10 01:07:09;;;;;;;15.65;3.67;;;25.40;90.90;;;;;;4992695;22;3011156;-77
2020/12/10 01:09:37;;;;;;;17.27;2.53;;;25.40;91.30;;;;;;5094542;22;20044;-79
2020/12/10 01:12:05;;;;;;;13.38;3.33;;;25.50;91.80;;;;;;5071050;28;20375;-78
2020/12/10 01:14:33;;;;;;;15.07;3.03;;;25.50;93.50;;;;;;5080286;23;20064;-79
2020/12/10 01:17:02;;;;;;;15.25;2.80;;;24.80;94.70;;;;;;5070929;28;20020;-80
2020/12/10 01:19:29;;;;;;;12.90;2.30;;;24.90;95.10;;;;;;5082759;28;20024;-78
2020/12/10 01:21:57;;;;;;;10.32;2.80;;;25.20;95.10;;;;;;5091745;28;20392;-79
2020/12/10 01:24:24;;;;;;;12.00;3.03;;;25.00;95.40;;;;;;5075743;22;20095;-78
2020/12/10 01:26:52;;;;;;;11.57;2.40;;;24.70;96.10;;;;;;5074356;28;20024;-78
2020/12/10 01:29:21;;;;;;;12.10;3.90;;;25.10;96.20;;;;;;5050151;28;20490;-79
2020/12/10 01:31:49;;;;;;;12.23;3.22;;;25.10;96.00;;;;;;5055228;28;20060;-79
2020/12/10 01:34:18;;;;;;;20.35;4.80;;;25.40;95.70;;;;;;5070468;28;20121;-79
2020/12/10 01:36:45;;;;;;;16.60;3.65;;;25.50;95.20;;;;;;5069251;28;20033;-79
2020/12/10 01:39:13;;;;;;;14.10;3.97;;;25.20;96.00;;;;;;5076343;22;20048;-79
2020/12/10 01:41:40;;;;;;;22.00;3.55;;;25.10;96.00;;;;;;5054405;28;20036;-79
2020/12/10 01:44:16;;;;;;;24.33;4.20;;;25.20;96.40;;;;;;5038429;28;20029;-80
2020/12/10 01:46:44;;;;;;;12.27;3.15;;;25.20;96.20;;;;;;5054443;28;20021;-77
2020/12/10 01:49:12;;;;;;;14.63;3.53;;;25.00;96.50;;;;;;5064006;28;20028;-79
2020/12/10 01:51:40;;;;;;;19.35;4.13;;;24.70;97.00;;;;;;5074717;28;20032;-78
2020/12/10 01:54:08;;;;;;;28.38;5.20;;;24.50;98.00;;;;;;5070348;28;20028;-78
2020/12/10 01:56:35;;;;;;;14.88;4.43;;;24.50;97.80;;;;;;5073941;28;20124;-77
2020/12/10 01:59:04;;;;;;;22.75;4.65;;;24.60;98.10;;;;;;5070325;28;20021;-78
2020/12/10 02:01:32;;;;;;;17.10;4.80;;;24.10;98.70;;;;;;5073823;28;20071;-78
2020/12/10 02:04:00;;;;;;;22.38;4.60;;;24.10;98.60;;;;;;5064199;28;20025;-77
2020/12/10 02:06:28;;;;;;;16.42;4.72;;;24.80;98.30;;;;;;5051181;28;20017;-78
2020/12/10 02:08:55;;;;;;;20.15;4.78;;;24.30;99.10;;;;;;5050745;28;20017;-77
2020/12/10 02:11:26;;;;;;;23.40;6.55;;;24.50;98.50;;;;;;5053026;28;20044;-77
2020/12/10 02:13:53;;;;;;;24.52;5.57;;;24.60;98.70;;;;;;5067357;23;20493;-78
2020/12/10 02:16:20;;;;;;;22.00;6.05;;;24.70;98.50;;;;;;5073422;28;20491;-78
2020/12/10 02:18:54;;;;;;;20.52;4.88;;;24.70;99.10;;;;;;5060721;28;20031;-78
2020/12/10 02:21:21;;;;;;;;;;;24.80;98.50;;;;;;5036709;28;20389;-75
2020/12/10 02:23:55;;;;;;;23.48;5.80;;;23.80;99.90;;;;;;5059532;28;19916;-77
2020/12/10 02:26:26;;;;;;;20.92;5.22;;;24.30;99.40;;;;;;5073295;28;20044;-76
2020/12/10 02:28:59;;;;;;;29.63;5.43;;;24.30;99.30;;;;;;5051292;28;20040;-76
2020/12/10 02:31:28;;;;;;;30.67;5.88;;;24.70;98.70;;;;;;5046389;28;20037;-76
2020/12/10 02:34:07;;;;;;;21.58;5.55;;;24.80;98.40;;;;;;5050524;28;20021;-77
2020/12/10 02:36:36;;;;;;;19.92;4.97;;;25.30;98.00;;;;;;5036052;28;20074;-77
2020/12/10 02:39:07;;;;;;;20.50;5.18;;;24.70;98.40;;;;;;5047626;28;20021;-78
2020/12/10 02:41:36;;;;;;;28.02;6.18;;;25.20;97.50;;;;;;5048333;28;20220;-77
2020/12/10 02:44:04;;;;;;;18.00;5.70;;;24.70;98.00;;;;;;5051858;28;20035;-77
2020/12/10 02:46:32;;;;;;;26.65;5.57;;;24.60;98.50;;;;;;5047464;28;20137;-78
2020/12/10 02:48:59;;;;;;;27.08;5.30;;;24.90;97.70;;;;;;5042352;28;20030;-77
2020/12/10 02:51:26;;;;;;;20.63;5.05;;;25.10;97.40;;;;;;5053740;28;20056;-75
2020/12/10 02:53:54;;;;;;;22.42;4.38;;;25.00;97.90;;;;;;5048621;28;20465;-76
2020/12/10 02:56:21;;;;;;;20.23;5.82;;;24.80;97.50;;;;;;5049816;28;20021;-77
2020/12/10 02:58:48;;;;;;;17.63;4.80;;;24.50;98.20;;;;;;5045219;28;20024;-77
2020/12/10 03:01:16;;;;;;;27.35;4.80;;;24.50;98.20;;;;;;5052771;28;20112;-77
2020/12/10 03:03:45;;;;;;;22.83;5.13;;;24.20;98.30;;;;;;5029512;28;20080;-82
2020/12/10 03:06:12;;;;;;;19.48;4.40;;;24.40;98.30;;;;;;5051773;28;20024;-79
2020/12/10 03:08:41;;;;;;;17.23;4.10;;;24.50;98.00;;;;;;5030217;28;20481;-79
2020/12/10 03:11:09;;;;;;;16.35;5.15;;;24.30;98.00;;;;;;5036445;28;20037;-82
2020/12/10 03:13:36;;;;;;;18.90;5.13;;;24.20;98.40;;;;;;5031528;23;20057;-78
2020/12/10 03:16:04;;;;;;;24.02;5.03;;;23.80;99.10;;;;;;5063744;22;20130;-78
2020/12/10 03:18:31;;;;;;;20.23;5.15;;;23.80;99.40;;;;;;5057117;22;20194;-80
2020/12/10 03:20:59;;;;;;;19.23;4.60;;;23.60;99.70;;;;;;5060525;22;20021;-79
2020/12/10 03:23:26;;;;;;;25.75;5.63;;;23.80;98.90;;;;;;5070015;28;20025;-80
2020/12/10 03:25:53;;;;;;;16.75;4.60;;;23.60;99.40;;;;;;5058746;28;20029;-79
2020/12/10 03:28:20;;;;;;;15.10;3.95;;;23.70;99.00;;;;;;5078704;28;20107;-80
2020/12/10 03:30:49;;;;;;;18.75;5.20;;;23.60;99.30;;;;;;5084919;22;20056;-80
2020/12/10 03:33:16;;;;;;;22.10;4.57;;;23.40;99.70;;;;;;5052734;28;20025;-81
2020/12/10 03:35:43;;;;;;;27.13;4.50;;;23.80;99.00;;;;;;5065690;28;20030;-81
2020/12/10 03:38:11;;;;;;;22.23;4.72;;;24.00;98.90;;;;;;5044315;28;20492;-79
2020/12/10 03:40:38;;;;;;;24.85;4.80;;;23.70;98.90;;;;;;5068413;28;20035;-80
2020/12/10 03:43:05;;;;;;;16.83;4.43;;;23.50;99.20;;;;;;5065850;28;20017;-79
2020/12/10 03:45:34;;;;;;;24.35;4.15;;;23.40;99.10;;;;;;5065527;28;20027;-80
2020/12/10 03:48:01;;;;;;;27.00;4.93;;;22.90;99.70;;;;;;5081740;22;20057;-80
2020/12/10 03:50:28;;;;;;;17.98;4.55;;;23.50;99.10;;;;;;5068212;28;20112;-82
2020/12/10 03:52:56;;;;;;;17.13;3.88;;;23.60;98.80;;;;;;5066103;28;20035;-79
2020/12/10 03:55:23;;;;;;;19.80;3.75;;;23.30;99.00;;;;;;5066644;28;20031;-81
2020/12/10 03:57:50;;;;;;;18.65;4.03;;;23.30;98.90;;;;;;5045582;28;20028;-81
2020/12/10 04:00:20;;;;;;;22.52;3.97;;;23.20;99.20;;;;;;5066783;28;20036;-81
2020/12/10 04:02:48;;;;;;;21.42;4.97;;;23.50;98.80;;;;;;5065589;28;20056;-83
2020/12/10 04:05:15;;;;;;;20.23;3.65;;;23.10;99.10;;;;;;5045029;28;20493;-81
2020/12/10 04:07:42;;;;;;;16.73;3.28;;;22.90;99.60;;;;;;5059479;28;20024;-82
2020/12/10 04:10:10;;;;;;;18.50;4.15;;;22.40;99.90;;;;;;5049444;28;20038;-81
2020/12/10 04:12:37;;;;;;;16.80;3.15;;;22.60;99.90;;;;;;5066283;28;20048;-80
2020/12/10 04:15:05;;;;;;;18.67;4.22;;;22.50;99.90;;;;;;5066780;28;20047;-81
2020/12/10 04:17:32;;;;;;;20.10;4.65;;;22.50;99.90;;;;;;5046411;28;20123;-79
2020/12/10 04:19:59;;;;;;;17.48;4.30;;;22.30;99.90;;;;;;5071262;23;20063;-79
2020/12/10 04:22:27;;;;;;;20.45;3.88;;;22.10;99.90;;;;;;5038132;28;20084;-79
2020/12/10 04:24:54;;;;;;;20.63;4.70;;;22.00;99.90;;;;;;5052282;28;20142;-80
2020/12/10 04:27:21;;;;;;;15.43;4.50;;;22.10;99.90;;;;;;5055118;28;20029;-81
2020/12/10 04:29:49;;;;;;;17.65;3.90;;;22.20;99.90;;;;;;5040065;28;20037;-81
2020/12/10 04:32:16;;;;;;;21.58;3.78;;;22.00;99.90;;;;;;5047118;28;20037;-80
2020/12/10 04:34:43;;;;;;;19.83;3.60;;;22.20;99.90;;;;;;5039395;28;22157;-80
2020/12/10 04:37:11;;;;;;;20.20;4.68;;;22.20;99.90;;;;;;5047452;28;20079;-80
2020/12/10 04:39:38;;;;;;;17.88;3.95;;;22.00;99.90;;;;;;5038206;28;20025;-79
2020/12/10 04:42:08;;;;;;;15.18;3.28;;;22.10;99.90;;;;;;5047232;28;20021;-80
2020/12/10 04:44:36;;;;;;;20.17;4.22;;;22.50;99.90;;;;;;5042449;28;20029;-82
2020/12/10 04:47:06;;;;;;;15.35;3.13;;;23.00;99.60;;;;;;5042016;28;20020;-82
2020/12/10 04:49:33;;;;;;;16.13;3.38;;;22.60;99.30;;;;;;5038559;28;20083;-77
2020/12/10 04:52:01;;;;;;;19.08;3.45;;;22.00;99.90;;;;;;5040382;28;20091;-76
2020/12/10 04:54:28;;;;;;;20.65;3.60;;;22.00;99.90;;;;;;5044166;28;20104;-76
2020/12/10 04:56:57;;;;;;;24.48;4.65;;;21.80;99.90;;;;;;5041212;28;20033;-76
2020/12/10 04:59:24;;;;;;;17.35;3.15;;;21.60;99.90;;;;;;5038334;28;20075;-76
2020/12/10 05:01:54;;;;;;;24.38;3.88;;;21.70;99.90;;;;;;5048500;28;20077;-76
2020/12/10 05:04:23;;;;;;;22.95;4.25;;;21.90;99.90;;;;;;5041433;28;20109;-77
2020/12/10 05:06:51;;;;;;;19.83;4.43;;;21.90;99.90;;;;;;5037693;28;20021;-76
2020/12/10 05:09:18;;;;;;;15.00;3.42;;;22.10;99.90;;;;;;5040136;28;20064;-77
2020/12/10 05:11:45;;;;;;;20.05;3.97;;;22.20;99.90;;;;;;5035192;28;20379;-76
2020/12/10 05:14:13;;;;;;;19.25;4.95;;;22.20;99.80;;;;;;5040666;28;20056;-77
2020/12/10 05:16:40;;;;;;;16.83;3.08;;;22.10;99.90;;;;;;5054047;28;20147;-79
2020/12/10 05:19:27;;;;;;;19.75;4.07;;;22.20;99.90;;;;;;5042257;28;20026;-77
2020/12/10 05:22:13;;;;;;;26.17;4.78;;;21.90;99.90;;;;;;5077919;22;20052;-78
2020/12/10 05:24:40;;;;;;;14.63;3.47;;;21.70;99.90;;;;;;5083708;22;20080;-78
2020/12/10 05:29:45;;;;;;;18.00;3.13;;;21.70;99.90;;;;;;5041940;22;20410;-78
2020/12/10 05:32:36;;;;;;;19.85;4.57;;;21.60;99.90;;;;;;5016849;28;20030;-80
2020/12/10 05:35:24;;;;;;;20.85;4.03;;;21.40;99.90;;;;;;5051859;28;20017;-79
2020/12/10 05:37:53;;;;;;;15.00;3.55;;;21.50;99.90;;;;;;5060136;22;20057;-79
2020/12/10 05:40:21;;;;;;;19.15;4.07;;;21.50;99.90;;;;;;5048268;28;20103;-78
2020/12/10 05:42:52;;;;;;;17.77;3.45;;;21.40;99.90;;;;;;5032464;28;20025;-82
2020/12/10 05:45:23;;;;;;;12.18;3.17;;;21.30;99.90;;;;;;5043718;28;20046;-80
2020/12/10 05:47:53;;;;;;;15.82;3.42;;;21.20;99.90;;;;;;5050529;28;20498;-78
2020/12/10 05:50:26;;;;;;;18.75;3.50;;;21.30;99.90;;;;;;5050638;28;20041;-77
2020/12/10 05:53:03;;;;;;;13.57;2.75;;;21.30;99.90;;;;;;5058803;22;20543;-78
2020/12/10 05:55:32;;;;;;;21.27;3.28;;;21.30;99.90;;;;;;5069209;28;20503;-81
2020/12/10 05:58:01;;;;;;;13.40;3.03;;;21.40;99.90;;;;;;5085733;28;20450;-81
2020/12/10 06:00:28;;;;;;;19.40;4.18;;;21.30;99.90;;;;;;5074098;28;20271;-82
2020/12/10 06:02:56;;;;;;;15.75;4.18;;;21.30;99.90;;;;;;5072800;28;20025;-81
2020/12/10 06:05:24;;;;;;;18.15;3.40;;;21.10;99.90;;;;;;5086890;28;20024;-79
2020/12/10 06:08:03;;;;;;;23.45;3.03;;;21.10;99.90;;;;;;5071829;28;20040;-76
2020/12/10 06:10:35;;;;;;;16.48;2.83;;;21.10;99.90;;;;;;5091393;28;20104;-82
2020/12/10 06:13:03;;;;;;;15.18;3.20;;;21.30;99.90;;;;;;5057763;28;20025;-81
2020/12/10 06:15:33;;;;;;;20.80;3.20;;;21.00;99.90;;;;;;5094094;28;20095;-80
2020/12/10 06:18:01;;;;;;;16.63;2.97;;;21.10;99.90;;;;;;5083585;28;20051;-83
2020/12/10 06:20:42;;;;;;;15.95;2.78;;;21.00;99.90;;;;;;5075686;28;20116;-86
2020/12/10 06:23:35;;;;;;;14.60;3.13;;;21.00;99.90;;;;;;5056364;28;20020;-82
2020/12/10 06:26:24;;;;;;;19.83;3.85;;;20.90;99.90;;;;;;5091609;22;20064;-82
2020/12/10 06:29:12;;;;;;;14.93;3.17;;;21.10;99.90;;;;;;5075071;28;20032;-81
2020/12/10 06:31:59;;;;;;;13.10;2.30;;;21.00;99.90;;;;;;5071525;28;20476;-81
2020/12/10 06:34:44;;;;;;;13.30;3.47;;;21.00;99.90;;;;;;5051948;28;20025;-84
2020/12/10 06:37:20;;;;;;;22.08;3.15;;;21.00;99.90;;;;;;5068607;28;20025;-80
2020/12/10 06:39:49;;;;;;;16.60;2.22;;;21.00;99.90;;;;;;5068553;28;20338;-81
2020/12/10 06:42:16;;;;;;;11.80;2.58;;;20.80;99.90;;;;;;5071470;28;20048;-81
2020/12/10 06:44:44;;;;;;;13.75;2.70;;;20.80;99.90;;;;;;5086412;28;20056;-82
2020/12/10 06:47:14;;;;;;;14.05;3.08;;;20.90;99.90;;;;;;5067586;28;20477;-83
2020/12/10 06:49:41;;;;;;;12.82;2.60;;;20.90;99.90;;;;;;5071255;28;20013;-80
2020/12/10 06:52:09;;;;;;;15.05;2.90;;;20.90;99.90;;;;;;5082635;28;20032;-86
2020/12/10 06:54:55;;;;;;;13.52;2.85;;;20.90;99.80;;;;;;5089521;28;20389;-81
2020/12/10 06:57:23;;;;;;;14.57;2.58;;;20.80;99.90;;;;;;5093151;28;20483;-84
2020/12/10 06:59:52;;;;;;;16.40;2.55;;;20.70;99.90;;;;;;5071130;28;20048;-87
2020/12/10 07:02:21;;;;;;;14.43;2.75;;;20.70;99.80;;;;;;5071543;28;20476;-82
2020/12/10 07:04:51;;;;;;;12.88;2.17;;;20.70;99.80;;;;;;5073478;28;20126;-78
2020/12/10 07:07:20;;;;;;;13.25;3.38;;;20.60;99.70;;;;;;5090135;28;20036;-79
2020/12/10 07:09:52;;;;;;;9.98;1.90;;;20.50;99.70;;;;;;5088633;28;20016;-78
2020/12/10 07:12:25;;;;;;;12.38;2.55;;;20.50;99.90;;;;;;5071616;28;20032;-80
2020/12/10 07:15:09;;;;;;;15.90;3.20;;;20.40;99.90;;;;;;5084283;28;20037;-80
2020/12/10 07:17:36;;;;;;;12.45;3.25;;;20.30;99.90;;;;;;5070601;28;20028;-81
2020/12/10 07:20:04;;;;;;;15.48;2.40;;;20.30;99.90;;;;;;5070691;28;20484;-80
2020/12/10 07:22:31;;;;;;;13.30;1.90;;;20.30;99.90;;;;;;5072314;28;20115;-78
2020/12/10 07:24:58;;;;;;;13.75;3.17;;;20.30;99.90;;;;;;5076048;28;20031;-81
2020/12/10 07:27:29;;;;;;;13.90;3.20;;;20.30;99.90;;;;;;5082158;22;20057;-83
2020/12/10 07:29:56;;;;;;;13.63;1.83;;;20.40;99.90;;;;;;5066765;22;20116;-84
2020/12/10 07:32:23;;;;;;;15.45;2.67;;;20.30;99.90;;;;;;5042446;28;20021;-82
2020/12/10 07:34:50;;;;;;;14.57;3.80;;;20.30;99.90;;;;;;5055901;23;20060;-81
2020/12/10 07:37:24;;;;;;;19.27;4.50;;;20.40;99.90;;;;;;5040640;28;20136;-82
2020/12/10 07:39:51;;;;;;;12.82;3.85;;;20.40;99.90;;;;;;5029969;28;20068;-83
2020/12/10 07:42:22;;;;;;;24.02;4.05;;;20.40;99.90;;;;;;5032034;28;20501;-83
2020/12/10 07:44:49;;;;;;;16.45;3.92;;;20.40;99.90;;;;;;5028686;23;20073;-83
2020/12/10 07:47:16;;;;;;;15.93;3.72;;;20.40;99.90;;;;;;5046446;28;20025;-82
2020/12/10 07:49:44;;;;;;;12.45;4.35;;;20.40;99.90;;;;;;5042650;28;20081;-80
2020/12/10 07:52:12;;;;;;;16.50;5.72;;;20.40;99.90;;;;;;5013029;28;20033;-82
2020/12/10 07:54:52;;;;;;;17.20;3.15;;;20.50;99.80;;;;;;5030754;28;20021;-82
2020/12/10 07:57:28;;;;;;;14.23;3.85;;;20.40;99.80;;;;;;5041611;28;20033;-81
2020/12/10 08:00:05;;;;;;;14.98;4.60;;;20.30;99.90;;;;;;5064362;22;20032;-80
2020/12/10 08:02:58;;;;;;;19.60;3.97;;;20.20;99.90;;;;;;5049482;28;20033;-82
2020/12/10 08:05:26;;;;;;;17.52;4.80;;;20.20;99.90;;;;;;5045170;28;20126;-81
2020/12/10 08:07:54;;;;;;;11.93;3.97;;;20.20;99.90;;;;;;5049222;28;20013;-85
2020/12/10 08:10:34;;;;;;;23.88;6.65;;;20.10;99.90;;;;;;5047969;28;20094;-82
2020/12/10 08:13:18;;;;;;;19.17;4.05;;;20.10;99.90;;;;;;5047670;28;20593;-83
2020/12/10 08:15:48;;;;;;;14.55;7.07;;;20.10;99.90;;;;;;5048390;28;20486;-82
2020/12/10 08:18:18;;;;;;;16.05;3.50;;;20.10;99.90;;;;;;5049425;28;20032;-83
2020/12/10 08:20:51;;;;;;;28.83;7.28;;;20.10;99.90;;;;;;5046411;28;20025;-83
2020/12/10 08:23:19;;;;;;;29.58;11.13;;;20.00;99.90;;;;;;5036590;28;20104;-83
2020/12/10 08:25:49;;;;;;;19.73;9.75;;;20.00;99.90;;;;;;5051293;28;20104;-84
2020/12/10 08:28:16;;;;;;;18.95;7.72;;;20.00;99.50;;;;;;5049078;28;20108;-82
2020/12/10 08:30:53;;;;;;;18.33;6.45;;;20.00;99.60;;;;;;5049161;28;20044;-82
2020/12/10 08:33:21;;;;;;;17.85;4.78;;;20.00;99.60;;;;;;5068860;22;20435;-86
2020/12/10 08:35:49;;;;;;;19.55;10.30;;;20.00;99.80;;;;;;5085234;28;20028;-82
2020/12/10 08:38:17;;;;;;;21.42;5.63;;;19.90;99.70;;;;;;5076378;28;20016;-83
2020/12/10 08:40:44;;;;;;;19.38;4.28;;;20.00;99.40;;;;;;5081990;28;20021;-85
2020/12/10 08:43:14;;;;;;;12.82;4.50;;;19.90;99.20;;;;;;5061808;28;20020;-83
2020/12/10 08:45:46;;;;;;;12.90;3.08;;;20.00;99.40;;;;;;5092306;28;20028;-82
2020/12/10 08:48:27;;;;;;;15.98;4.88;;;19.90;99.40;;;;;;5081937;28;20410;-82
2020/12/10 08:50:57;;;;;;;17.13;4.18;;;19.90;99.30;;;;;;5087099;28;20051;-83
2020/12/10 08:53:24;;;;;;;20.17;3.15;;;19.90;99.10;;;;;;5078216;28;20537;-84
2020/12/10 08:55:55;;;;;;;19.60;3.33;;;19.90;99.00;;;;;;5083902;28;20036;-84
2020/12/10 08:58:26;;;;;;;15.15;3.65;;;19.90;98.90;;;;;;5075864;28;20021;-83
2020/12/10 09:00:55;;;;;;;12.95;4.18;;;19.90;99.00;;;;;;5072066;28;20028;-84
2020/12/10 09:03:23;;;;;;;16.02;4.13;;;19.80;98.80;;;;;;5061726;28;20059;-83
2020/12/10 09:05:51;;;;;;;16.23;3.60;;;19.90;99.00;;;;;;5048128;28;20032;-83
2020/12/10 09:08:19;;;;;;;18.48;4.45;;;19.80;99.10;;;;;;5063040;28;20051;-88
2020/12/10 09:10:47;;;;;;;14.48;3.85;;;19.80;99.20;;;;;;5075156;28;20036;-82
2020/12/10 09:13:14;;;;;;;19.52;4.05;;;19.70;99.30;;;;;;5056807;28;20031;-83
2020/12/10 09:15:42;;;;;;;15.45;3.58;;;19.70;99.20;;;;;;5074078;28;20012;-83
2020/12/10 09:18:13;;;;;;;18.02;4.15;;;19.70;99.40;;;;;;5078480;28;20028;-87
2020/12/10 09:20:41;;;;;;;18.00;2.72;;;19.70;99.50;;;;;;5080484;28;20024;-90
2020/12/10 09:23:09;;;;;;;18.88;3.85;;;19.80;99.30;;;;;;5069988;28;20020;-84
2020/12/10 09:25:37;;;;;;;17.20;4.00;;;19.70;99.30;;;;;;5056012;28;20028;-84
2020/12/10 09:28:06;;;;;;;12.40;2.90;;;19.80;99.30;;;;;;5074625;28;20016;-85
2020/12/10 09:30:34;;;;;;;19.55;4.80;;;19.70;99.60;;;;;;5084534;28;20517;-84
2020/12/10 09:33:01;;;;;;;14.68;4.00;;;19.60;99.90;;;;;;5095022;28;20024;-84
2020/12/10 09:35:28;;;;;;;20.48;4.45;;;19.50;99.90;;;;;;5081032;22;20452;-85
2020/12/10 09:37:56;;;;;;;12.70;2.92;;;19.50;99.50;;;;;;5073026;22;20478;-83
2020/12/10 09:40:23;;;;;;;18.52;2.85;;;19.50;98.80;;;;;;5010270;28;20045;-83
2020/12/10 09:42:51;;;;;;;15.98;4.38;;;19.40;99.00;;;;;;5054513;22;20150;-87
2020/12/10 09:45:19;;;;;;;15.00;3.38;;;19.40;98.70;;;;;;5051346;28;20104;-83
2020/12/10 09:47:47;;;;;;;19.67;3.50;;;19.40;98.30;;;;;;5035562;28;20029;-84
2020/12/10 09:50:27;;;;;;;12.25;4.00;;;19.40;97.90;;;;;;5054331;28;20037;-84
2020/12/10 09:53:00;;;;;;;19.45;3.95;;;19.40;97.80;;;;;;5086773;22;20072;-83
2020/12/10 09:56:09;;;;;;;16.07;3.83;;;19.40;97.90;;;;;;5083786;28;20094;-89
2020/12/10 09:58:15;;;;;;;16.55;3.30;;;19.40;97.80;;;;;;5065661;28;20274;-85
2020/12/10 10:00:48;;;;;;;14.80;4.40;;;19.40;97.90;;;;;;5072240;28;20025;-85
2020/12/10 10:03:20;;;;;;;16.05;3.28;;;19.40;97.70;;;;;;5085916;28;20020;-89
2020/12/10 10:05:47;;;;;;;16.52;4.97;;;19.40;97.80;;;;;;5072833;28;20198;-84
2020/12/10 10:08:14;;;;;;;12.55;2.67;;;19.40;97.70;;;;;;5080744;22;20049;-84
2020/12/10 10:10:42;;;;;;;19.42;4.35;;;19.40;97.20;;;;;;5058012;28;20037;-83
2020/12/10 10:13:10;;;;;;;15.50;2.85;;;19.50;97.00;;;;;;5051632;28;20051;-84
2020/12/10 10:15:38;;;;;;;14.27;2.90;;;19.50;96.90;;;;;;5054014;28;20021;-83
2020/12/10 10:18:05;;;;;;;18.52;2.63;;;19.50;96.90;;;;;;5052366;28;20028;-87
2020/12/10 10:20:33;;;;;;;19.42;2.90;;;19.50;96.80;;;;;;5052236;28;20025;-83
2020/12/10 10:23:00;;;;;;;13.38;1.80;;;19.40;97.20;;;;;;5053834;28;20020;-83
2020/12/10 10:25:27;;;;;;;13.63;2.70;;;19.40;96.70;;;;;;5062117;28;20502;-83
2020/12/10 10:27:55;;;;;;;18.98;3.38;;;19.40;96.70;;;;;;5053064;28;20474;-86
2020/12/10 10:30:25;;;;;;;23.95;2.50;;;19.40;97.10;;;;;;5055322;28;20063;-84
2020/12/10 10:32:53;;;;;;;17.58;2.53;;;19.40;97.40;;;;;;5061229;28;20029;-84
2020/12/10 10:35:23;;;;;;;19.98;3.05;;;19.40;97.10;;;;;;5059776;28;20249;-84
2020/12/10 10:37:51;;;;;;;10.73;2.00;;;19.40;96.90;;;;;;5045161;28;20120;-84
2020/12/10 10:40:19;;;;;;;14.02;2.70;;;19.40;96.70;;;;;;5031762;28;20044;-85
2020/12/10 10:42:47;;;;;;;17.25;3.58;;;19.40;96.70;;;;;;5067213;22;20068;-83
2020/12/10 10:45:14;;;;;;;16.88;3.05;;;19.40;96.80;;;;;;5060858;28;20095;-86
2020/12/10 10:47:41;;;;;;;10.95;2.25;;;19.40;96.90;;;;;;5072251;28;20035;-85
2020/12/10 10:50:08;;;;;;;18.02;2.88;;;19.40;96.90;;;;;;5072856;28;20028;-85
2020/12/10 10:52:36;;;;;;;12.48;1.95;;;19.40;96.60;;;;;;5068218;28;20146;-87
2020/12/10 10:55:04;;;;;;;10.50;1.75;;;19.40;96.40;;;;;;5053171;28;20025;-91
2020/12/10 10:57:31;;;;;;;11.85;1.92;;;19.40;96.40;;;;;;5052867;28;20071;-85
2020/12/10 10:59:58;;;;;;;15.57;2.17;;;19.40;96.50;;;;;;5071229;28;20032;-84
2020/12/10 11:02:26;;;;;;;14.30;2.50;;;19.40;96.60;;;;;;5071505;28;20025;-84
2020/12/10 11:04:53;;;;;;;17.25;2.83;;;19.50;96.60;;;;;;5074670;28;20024;-84
2020/12/10 11:07:21;;;;;;;13.15;1.98;;;19.40;96.70;;;;;;5071006;28;20033;-85
2020/12/10 11:09:48;;;;;;;15.10;3.03;;;19.40;96.60;;;;;;5072163;28;20028;-85
2020/12/10 11:12:15;;;;;;;12.95;2.17;;;19.50;96.50;;;;;;5070970;28;20036;-85
2020/12/10 11:14:43;;;;;;;16.10;2.33;;;19.50;96.70;;;;;;5071666;28;20017;-85
2020/12/10 11:17:11;;;;;;;17.58;2.25;;;19.50;96.20;;;;;;5072092;28;20056;-84
2020/12/10 11:19:38;;;;;;;12.40;2.63;;;19.40;96.30;;;;;;5072237;28;20012;-85
2020/12/10 11:22:06;;;;;;;16.42;2.88;;;19.40;96.50;;;;;;5070629;28;20116;-84
2020/12/10 11:24:33;;;;;;;12.77;2.10;;;19.40;96.70;;;;;;5070887;28;20035;-83
2020/12/10 11:27:01;;;;;;;21.00;3.28;;;19.40;96.80;;;;;;5052277;28;20554;-84
2020/12/10 11:29:28;;;;;;;16.25;2.53;;;19.40;97.00;;;;;;5070275;28;20119;-85
2020/12/10 11:31:56;;;;;;;10.63;2.95;;;19.40;97.30;;;;;;5051007;28;20047;-85
2020/12/10 11:34:24;;;;;;;14.35;2.53;;;19.30;97.40;;;;;;5071002;28;20443;-85
2020/12/10 11:36:52;;;;;;;14.82;2.53;;;19.20;97.30;;;;;;5070605;28;20037;-84
2020/12/10 11:39:20;;;;;;;12.57;2.47;;;19.20;97.20;;;;;;5066074;28;20024;-84
2020/12/10 11:41:47;;;;;;;11.77;1.92;;;19.20;97.30;;;;;;5056804;22;20059;-84
2020/12/10 11:44:14;;;;;;;13.63;2.58;;;19.30;97.50;;;;;;5033654;23;20037;-84
2020/12/10 11:46:42;;;;;;;21.17;2.75;;;19.20;97.80;;;;;;5042096;23;20049;-85
2020/12/10 11:49:10;;;;;;;12.88;2.33;;;19.10;99.80;;;;;;5050684;28;20029;-89
2020/12/10 11:51:38;;;;;;;18.05;4.28;;;18.60;99.90;;;;;;5055558;22;20064;-84
2020/12/10 11:54:05;;;;;;;17.77;2.53;;;18.50;99.90;;;;;;5032028;28;20017;-84
2020/12/10 11:56:33;;;;;;;13.13;2.45;;;18.40;99.90;;;;;;5035196;28;20032;-84
2020/12/10 11:59:00;;;;;;;15.73;3.10;;;18.40;99.90;;;;;;5063024;22;20532;-85
2020/12/10 12:01:27;;;;;;;16.60;3.13;;;18.40;99.90;;;;;;5078809;28;20080;-84
2020/12/10 12:03:55;;;;;;;16.25;3.58;;;18.40;99.90;;;;;;5049330;28;20029;-84
2020/12/10 12:06:23;;;;;;;13.45;2.63;;;18.50;99.90;;;;;;5059979;28;20443;-84
2020/12/10 12:08:53;;;;;;;16.65;3.03;;;18.50;99.90;;;;;;5052670;28;20017;-84
2020/12/10 12:11:27;;;;;;;13.07;3.40;;;18.50;99.90;;;;;;5072061;28;20039;-85
2020/12/10 12:13:54;;;;;;;;;;;18.50;99.90;;;;;;5057836;28;20053;-84
2020/12/10 12:16:21;;;;;;;24.65;4.28;;;18.50;99.90;;;;;;5064877;22;19956;-83
2020/12/10 12:18:49;;;;;;;17.17;3.35;;;18.30;99.90;;;;;;5050120;28;20029;-84
2020/12/10 12:21:23;;;;;;;19.58;3.47;;;18.30;99.90;;;;;;5050767;28;20474;-84
2020/12/10 12:23:51;;;;;;;16.75;3.38;;;18.30;99.90;;;;;;5050968;28;20033;-89
2020/12/10 12:26:19;;;;;;;21.63;3.58;;;18.30;99.90;;;;;;5047370;28;20074;-85
2020/12/10 12:28:49;;;;;;;17.85;3.25;;;18.20;99.90;;;;;;5050181;28;20025;-84
2020/12/10 12:31:17;;;;;;;22.92;2.97;;;18.10;99.90;;;;;;5050845;28;20079;-85
2020/12/10 12:33:44;;;;;;;19.08;2.75;;;18.10;99.90;;;;;;5039769;28;20017;-85
2020/12/10 12:36:12;;;;;;;20.35;3.50;;;18.00;99.90;;;;;;5032784;28;20033;-84
2020/12/10 12:38:39;;;;;;;21.10;3.65;;;18.00;99.90;;;;;;5047953;28;20159;-85
2020/12/10 12:41:06;;;;;;;17.42;2.80;;;17.90;99.90;;;;;;5050520;28;20033;-85
2020/12/10 12:43:34;;;;;;;18.42;2.78;;;17.90;99.90;;;;;;5050443;28;20597;-84
2020/12/10 12:46:01;;;;;;;20.00;3.38;;;17.90;99.90;;;;;;5051314;28;20398;-85
2020/12/10 12:48:28;;;;;;;16.02;2.63;;;17.90;99.90;;;;;;5056883;22;20000;-84
2020/12/10 12:50:55;;;;;;;21.65;2.78;;;17.90;99.90;;;;;;5052464;28;20045;-84